Terminal Aerodrome Forecast
Issued by NWS Jacksonville, FL

Home | Current Version | Previous Version | Text Only | Print | Product List | Glossary On
Versions: 1 2 3 4 5 6 7 8 9 10 11 12 13 14 15 16 17 18 19 20 21
000
FTUS42 KJAX 210541
TAFJAX
TAF
KJAX 210541Z 2106/2206 06003KT P6SM VCSH SCT008 SCT020 OVC120
      TEMPO 2109/2113 BKN020
     FM211300 09006KT P6SM VCSH SCT010 BKN020 OVC070
     FM211600 12010G15KT 5SM SHRA BR SCT015 BKN025 OVC040
     FM211800 11013G20KT P6SM VCSH SCT025 BKN070 BKN180=

USA.gov is the U.S. government's official web portal to all federal, state and local government web resources and services.